sensor_id;sensor_type;location;lat;lon;timestamp;P1;durP1;ratioP1;P2;durP2;ratioP2
52854;SDS011;38719;51.418;7.286;2022-11-15T00:00:57;12.07;;;6.90;;
52854;SDS011;38719;51.418;7.286;2022-11-15T00:03:26;13.70;;;6.90;;
52854;SDS011;38719;51.418;7.286;2022-11-15T00:06:00;11.98;;;6.82;;
52854;SDS011;38719;51.418;7.286;2022-11-15T00:08:29;10.15;;;6.93;;
52854;SDS011;38719;51.418;7.286;2022-11-15T00:10:58;10.88;;;6.72;;
52854;SDS011;38719;51.418;7.286;2022-11-15T00:13:26;12.75;;;6.70;;
52854;SDS011;38719;51.418;7.286;2022-11-15T00:15:57;12.35;;;7.00;;
52854;SDS011;38719;51.418;7.286;2022-11-15T00:18:27;10.20;;;6.50;;
52854;SDS011;38719;51.418;7.286;2022-11-15T00:20:56;9.23;;;6.40;;
52854;SDS011;38719;51.418;7.286;2022-11-15T00:23:29;11.02;;;6.50;;
52854;SDS011;38719;51.418;7.286;2022-11-15T00:25:58;9.65;;;6.22;;
52854;SDS011;38719;51.418;7.286;2022-11-15T00:28:25;11.18;;;6.80;;
52854;SDS011;38719;51.418;7.286;2022-11-15T00:30:53;14.48;;;6.72;;
52854;SDS011;38719;51.418;7.286;2022-11-15T00:33:22;8.63;;;6.07;;
52854;SDS011;38719;51.418;7.286;2022-11-15T00:35:49;12.00;;;6.50;;
52854;SDS011;38719;51.418;7.286;2022-11-15T00:38:17;12.57;;;6.18;;
52854;SDS011;38719;51.418;7.286;2022-11-15T00:40:44;13.52;;;7.65;;
52854;SDS011;38719;51.418;7.286;2022-11-15T00:43:12;9.10;;;5.75;;
52854;SDS011;38719;51.418;7.286;2022-11-15T00:45:39;14.93;;;6.47;;
52854;SDS011;38719;51.418;7.286;2022-11-15T00:48:07;11.25;;;6.70;;
52854;SDS011;38719;51.418;7.286;2022-11-15T00:50:36;11.07;;;6.43;;
52854;SDS011;38719;51.418;7.286;2022-11-15T00:53:03;10.70;;;6.45;;
52854;SDS011;38719;51.418;7.286;2022-11-15T00:55:31;10.23;;;6.28;;
52854;SDS011;38719;51.418;7.286;2022-11-15T00:57:58;16.33;;;7.05;;
52854;SDS011;38719;51.418;7.286;2022-11-15T01:00:26;14.05;;;6.70;;
52854;SDS011;38719;51.418;7.286;2022-11-15T01:02:54;12.07;;;6.50;;
52854;SDS011;38719;51.418;7.286;2022-11-15T01:05:21;12.55;;;6.60;;
52854;SDS011;38719;51.418;7.286;2022-11-15T01:07:52;13.88;;;6.75;;
52854;SDS011;38719;51.418;7.286;2022-11-15T01:10:20;11.55;;;6.72;;
52854;SDS011;38719;51.418;7.286;2022-11-15T01:12:48;10.27;;;6.38;;
52854;SDS011;38719;51.418;7.286;2022-11-15T01:15:16;11.45;;;6.75;;
52854;SDS011;38719;51.418;7.286;2022-11-15T01:17:44;12.13;;;6.88;;
52854;SDS011;38719;51.418;7.286;2022-11-15T01:20:11;11.38;;;6.82;;
52854;SDS011;38719;51.418;7.286;2022-11-15T01:22:39;13.02;;;7.10;;
52854;SDS011;38719;51.418;7.286;2022-11-15T01:25:08;14.68;;;7.00;;
52854;SDS011;38719;51.418;7.286;2022-11-15T01:27:35;11.55;;;7.05;;
52854;SDS011;38719;51.418;7.286;2022-11-15T01:30:03;10.60;;;6.65;;
52854;SDS011;38719;51.418;7.286;2022-11-15T01:32:32;14.85;;;6.82;;
52854;SDS011;38719;51.418;7.286;2022-11-15T01:34:59;14.35;;;7.13;;
52854;SDS011;38719;51.418;7.286;2022-11-15T01:37:27;9.52;;;6.35;;
52854;SDS011;38719;51.418;7.286;2022-11-15T01:39:54;12.05;;;6.43;;
52854;SDS011;38719;51.418;7.286;2022-11-15T01:42:23;9.68;;;6.15;;
52854;SDS011;38719;51.418;7.286;2022-11-15T01:44:50;10.48;;;6.20;;
52854;SDS011;38719;51.418;7.286;2022-11-15T01:47:19;11.60;;;6.93;;
52854;SDS011;38719;51.418;7.286;2022-11-15T01:49:50;16.08;;;7.03;;
52854;SDS011;38719;51.418;7.286;2022-11-15T01:52:22;12.82;;;6.28;;
52854;SDS011;38719;51.418;7.286;2022-11-15T01:54:53;8.90;;;6.10;;
52854;SDS011;38719;51.418;7.286;2022-11-15T01:57:26;10.27;;;6.28;;
52854;SDS011;38719;51.418;7.286;2022-11-15T01:59:54;11.18;;;6.43;;
52854;SDS011;38719;51.418;7.286;2022-11-15T02:02:22;10.55;;;5.97;;
52854;SDS011;38719;51.418;7.286;2022-11-15T02:04:50;11.35;;;6.57;;
52854;SDS011;38719;51.418;7.286;2022-11-15T02:07:19;10.05;;;6.50;;
52854;SDS011;38719;51.418;7.286;2022-11-15T02:09:48;7.80;;;5.88;;
52854;SDS011;38719;51.418;7.286;2022-11-15T02:12:18;12.20;;;6.45;;
52854;SDS011;38719;51.418;7.286;2022-11-15T02:14:49;12.52;;;6.35;;
52854;SDS011;38719;51.418;7.286;2022-11-15T02:17:24;8.50;;;5.90;;
52854;SDS011;38719;51.418;7.286;2022-11-15T02:23:30;10.40;;;6.10;;
52854;SDS011;38719;51.418;7.286;2022-11-15T02:28:55;9.75;;;6.20;;
52854;SDS011;38719;51.418;7.286;2022-11-15T02:31:31;12.80;;;7.68;;
52854;SDS011;38719;51.418;7.286;2022-11-15T02:34:06;9.98;;;6.40;;
52854;SDS011;38719;51.418;7.286;2022-11-15T02:36:40;12.10;;;5.93;;
52854;SDS011;38719;51.418;7.286;2022-11-15T02:39:13;11.98;;;7.07;;
52854;SDS011;38719;51.418;7.286;2022-11-15T02:41:49;12.05;;;6.80;;
52854;SDS011;38719;51.418;7.286;2022-11-15T02:44:21;12.98;;;7.13;;
52854;SDS011;38719;51.418;7.286;2022-11-15T02:46:52;11.05;;;6.80;;
52854;SDS011;38719;51.418;7.286;2022-11-15T02:49:43;11.55;;;6.53;;
52854;SDS011;38719;51.418;7.286;2022-11-15T02:52:14;13.13;;;6.50;;
52854;SDS011;38719;51.418;7.286;2022-11-15T02:54:52;10.18;;;6.95;;
52854;SDS011;38719;51.418;7.286;2022-11-15T02:57:23;11.48;;;6.97;;
52854;SDS011;38719;51.418;7.286;2022-11-15T03:00:03;12.75;;;7.97;;
52854;SDS011;38719;51.418;7.286;2022-11-15T03:02:46;17.63;;;7.50;;
52854;SDS011;38719;51.418;7.286;2022-11-15T03:05:30;9.50;;;6.85;;
52854;SDS011;38719;51.418;7.286;2022-11-15T03:08:05;12.82;;;6.78;;
52854;SDS011;38719;51.418;7.286;2022-11-15T03:10:40;14.90;;;7.07;;
52854;SDS011;38719;51.418;7.286;2022-11-15T03:13:16;13.35;;;7.10;;
52854;SDS011;38719;51.418;7.286;2022-11-15T03:15:50;10.90;;;6.63;;
52854;SDS011;38719;51.418;7.286;2022-11-15T03:18:27;12.38;;;6.45;;
52854;SDS011;38719;51.418;7.286;2022-11-15T03:20:59;9.73;;;6.33;;
52854;SDS011;38719;51.418;7.286;2022-11-15T03:23:31;12.52;;;6.40;;
52854;SDS011;38719;51.418;7.286;2022-11-15T03:26:01;11.20;;;6.97;;
52854;SDS011;38719;51.418;7.286;2022-11-15T03:28:30;11.18;;;6.63;;
52854;SDS011;38719;51.418;7.286;2022-11-15T03:31:01;12.43;;;6.65;;
52854;SDS011;38719;51.418;7.286;2022-11-15T03:33:53;13.82;;;6.40;;
52854;SDS011;38719;51.418;7.286;2022-11-15T03:36:24;13.13;;;7.03;;
52854;SDS011;38719;51.418;7.286;2022-11-15T03:38:54;10.30;;;5.93;;
52854;SDS011;38719;51.418;7.286;2022-11-15T03:41:28;9.38;;;6.20;;
52854;SDS011;38719;51.418;7.286;2022-11-15T03:46:36;12.32;;;6.47;;
52854;SDS011;38719;51.418;7.286;2022-11-15T03:49:11;11.70;;;6.38;;
52854;SDS011;38719;51.418;7.286;2022-11-15T03:51:44;11.05;;;6.57;;
52854;SDS011;38719;51.418;7.286;2022-11-15T03:54:12;10.10;;;5.88;;
52854;SDS011;38719;51.418;7.286;2022-11-15T03:56:40;11.05;;;6.45;;
52854;SDS011;38719;51.418;7.286;2022-11-15T03:59:07;10.43;;;5.97;;
52854;SDS011;38719;51.418;7.286;2022-11-15T04:01:35;8.82;;;5.95;;
52854;SDS011;38719;51.418;7.286;2022-11-15T04:04:02;9.63;;;5.50;;
52854;SDS011;38719;51.418;7.286;2022-11-15T04:06:31;8.75;;;5.75;;
52854;SDS011;38719;51.418;7.286;2022-11-15T04:08:59;9.55;;;5.35;;
52854;SDS011;38719;51.418;7.286;2022-11-15T04:11:27;8.27;;;5.93;;
52854;SDS011;38719;51.418;7.286;2022-11-15T04:13:54;12.85;;;6.30;;
52854;SDS011;38719;51.418;7.286;2022-11-15T04:16:22;10.48;;;5.45;;
52854;SDS011;38719;51.418;7.286;2022-11-15T04:18:49;9.35;;;6.13;;
52854;SDS011;38719;51.418;7.286;2022-11-15T04:21:38;13.02;;;5.57;;
52854;SDS011;38719;51.418;7.286;2022-11-15T04:24:23;8.23;;;5.82;;
52854;SDS011;38719;51.418;7.286;2022-11-15T04:26:50;11.30;;;5.75;;
52854;SDS011;38719;51.418;7.286;2022-11-15T04:29:18;11.43;;;6.40;;
52854;SDS011;38719;51.418;7.286;2022-11-15T04:32:01;10.13;;;6.18;;
52854;SDS011;38719;51.418;7.286;2022-11-15T04:34:28;9.77;;;6.57;;
52854;SDS011;38719;51.418;7.286;2022-11-15T04:36:58;10.27;;;6.38;;
52854;SDS011;38719;51.418;7.286;2022-11-15T04:39:38;9.13;;;5.82;;
52854;SDS011;38719;51.418;7.286;2022-11-15T04:42:06;8.32;;;5.78;;
52854;SDS011;38719;51.418;7.286;2022-11-15T04:44:34;8.55;;;5.95;;
52854;SDS011;38719;51.418;7.286;2022-11-15T04:47:02;8.65;;;5.82;;
52854;SDS011;38719;51.418;7.286;2022-11-15T04:49:29;11.70;;;6.40;;
52854;SDS011;38719;51.418;7.286;2022-11-15T04:51:58;10.98;;;6.82;;
52854;SDS011;38719;51.418;7.286;2022-11-15T04:54:26;11.05;;;6.28;;
52854;SDS011;38719;51.418;7.286;2022-11-15T04:56:54;9.73;;;6.38;;
52854;SDS011;38719;51.418;7.286;2022-11-15T04:59:21;10.45;;;6.35;;
52854;SDS011;38719;51.418;7.286;2022-11-15T05:01:49;9.85;;;6.38;;
52854;SDS011;38719;51.418;7.286;2022-11-15T05:04:16;10.90;;;6.30;;
52854;SDS011;38719;51.418;7.286;2022-11-15T05:06:47;10.90;;;6.35;;
52854;SDS011;38719;51.418;7.286;2022-11-15T05:09:16;9.55;;;6.47;;
52854;SDS011;38719;51.418;7.286;2022-11-15T05:11:45;9.55;;;6.75;;
52854;SDS011;38719;51.418;7.286;2022-11-15T05:14:13;11.25;;;6.55;;
52854;SDS011;38719;51.418;7.286;2022-11-15T05:16:41;9.50;;;6.50;;
52854;SDS011;38719;51.418;7.286;2022-11-15T05:19:09;10.55;;;6.80;;
52854;SDS011;38719;51.418;7.286;2022-11-15T05:21:37;9.40;;;6.97;;
52854;SDS011;38719;51.418;7.286;2022-11-15T05:24:05;9.93;;;5.93;;
52854;SDS011;38719;51.418;7.286;2022-11-15T05:26:34;11.43;;;6.75;;
52854;SDS011;38719;51.418;7.286;2022-11-15T05:29:02;8.30;;;6.18;;
52854;SDS011;38719;51.418;7.286;2022-11-15T05:31:29;10.93;;;5.72;;
52854;SDS011;38719;51.418;7.286;2022-11-15T05:33:57;8.88;;;6.43;;
52854;SDS011;38719;51.418;7.286;2022-11-15T05:36:29;7.40;;;6.03;;
52854;SDS011;38719;51.418;7.286;2022-11-15T05:39:01;10.20;;;6.05;;
52854;SDS011;38719;51.418;7.286;2022-11-15T05:41:31;10.35;;;5.80;;
52854;SDS011;38719;51.418;7.286;2022-11-15T05:44:02;8.80;;;5.82;;
52854;SDS011;38719;51.418;7.286;2022-11-15T05:46:34;7.95;;;5.40;;
52854;SDS011;38719;51.418;7.286;2022-11-15T05:49:03;9.40;;;5.90;;
52854;SDS011;38719;51.418;7.286;2022-11-15T05:51:35;12.13;;;5.72;;
52854;SDS011;38719;51.418;7.286;2022-11-15T05:54:02;7.72;;;5.45;;
52854;SDS011;38719;51.418;7.286;2022-11-15T05:56:30;11.10;;;6.07;;
52854;SDS011;38719;51.418;7.286;2022-11-15T05:58:58;6.95;;;5.70;;
52854;SDS011;38719;51.418;7.286;2022-11-15T06:01:27;7.25;;;5.93;;
52854;SDS011;38719;51.418;7.286;2022-11-15T06:03:55;7.78;;;5.97;;
52854;SDS011;38719;51.418;7.286;2022-11-15T06:06:22;10.70;;;6.40;;
52854;SDS011;38719;51.418;7.286;2022-11-15T06:08:50;7.20;;;5.70;;
52854;SDS011;38719;51.418;7.286;2022-11-15T06:11:17;8.30;;;5.32;;
52854;SDS011;38719;51.418;7.286;2022-11-15T06:13:45;7.60;;;5.28;;
52854;SDS011;38719;51.418;7.286;2022-11-15T06:16:12;7.20;;;4.47;;
52854;SDS011;38719;51.418;7.286;2022-11-15T06:18:41;6.07;;;4.63;;
52854;SDS011;38719;51.418;7.286;2022-11-15T06:21:09;7.18;;;4.40;;
52854;SDS011;38719;51.418;7.286;2022-11-15T06:23:36;7.57;;;4.60;;
52854;SDS011;38719;51.418;7.286;2022-11-15T06:26:04;7.18;;;4.82;;
52854;SDS011;38719;51.418;7.286;2022-11-15T06:28:32;6.38;;;4.32;;
52854;SDS011;38719;51.418;7.286;2022-11-15T06:31:02;6.25;;;4.20;;
52854;SDS011;38719;51.418;7.286;2022-11-15T06:33:30;10.02;;;4.28;;
52854;SDS011;38719;51.418;7.286;2022-11-15T06:36:01;5.38;;;4.07;;
52854;SDS011;38719;51.418;7.286;2022-11-15T06:38:29;4.93;;;3.70;;
52854;SDS011;38719;51.418;7.286;2022-11-15T06:41:00;7.60;;;4.15;;
52854;SDS011;38719;51.418;7.286;2022-11-15T06:43:29;4.75;;;3.78;;
52854;SDS011;38719;51.418;7.286;2022-11-15T06:45:57;5.55;;;3.90;;
52854;SDS011;38719;51.418;7.286;2022-11-15T06:48:25;4.45;;;3.53;;
52854;SDS011;38719;51.418;7.286;2022-11-15T06:50:53;4.35;;;3.78;;
52854;SDS011;38719;51.418;7.286;2022-11-15T06:53:23;6.85;;;3.63;;
52854;SDS011;38719;51.418;7.286;2022-11-15T06:55:50;6.30;;;4.00;;
52854;SDS011;38719;51.418;7.286;2022-11-15T06:58:20;6.05;;;3.75;;
52854;SDS011;38719;51.418;7.286;2022-11-15T07:00:48;5.05;;;3.70;;
52854;SDS011;38719;51.418;7.286;2022-11-15T07:03:16;4.60;;;3.42;;
52854;SDS011;38719;51.418;7.286;2022-11-15T07:05:50;5.03;;;3.38;;
52854;SDS011;38719;51.418;7.286;2022-11-15T07:08:19;5.53;;;3.58;;
52854;SDS011;38719;51.418;7.286;2022-11-15T07:10:48;5.57;;;3.50;;
52854;SDS011;38719;51.418;7.286;2022-11-15T07:13:15;5.35;;;3.72;;
52854;SDS011;38719;51.418;7.286;2022-11-15T07:15:44;5.25;;;3.42;;
52854;SDS011;38719;51.418;7.286;2022-11-15T07:18:11;8.30;;;3.30;;
52854;SDS011;38719;51.418;7.286;2022-11-15T07:20:39;30.25;;;3.58;;
52854;SDS011;38719;51.418;7.286;2022-11-15T07:23:06;3.55;;;2.88;;
52854;SDS011;38719;51.418;7.286;2022-11-15T07:25:34;5.20;;;3.20;;
52854;SDS011;38719;51.418;7.286;2022-11-15T07:28:03;3.85;;;2.72;;
52854;SDS011;38719;51.418;7.286;2022-11-15T07:30:31;4.38;;;3.20;;
52854;SDS011;38719;51.418;7.286;2022-11-15T07:32:59;3.45;;;2.78;;
52854;SDS011;38719;51.418;7.286;2022-11-15T07:35:28;4.18;;;3.13;;
52854;SDS011;38719;51.418;7.286;2022-11-15T07:37:56;3.63;;;2.78;;
52854;SDS011;38719;51.418;7.286;2022-11-15T07:40:25;6.50;;;2.78;;
52854;SDS011;38719;51.418;7.286;2022-11-15T07:42:53;3.42;;;2.80;;
52854;SDS011;38719;51.418;7.286;2022-11-15T07:45:27;3.47;;;2.70;;
52854;SDS011;38719;51.418;7.286;2022-11-15T07:47:56;3.55;;;2.90;;
52854;SDS011;38719;51.418;7.286;2022-11-15T07:50:23;5.63;;;3.13;;
52854;SDS011;38719;51.418;7.286;2022-11-15T07:52:54;3.70;;;2.90;;
52854;SDS011;38719;51.418;7.286;2022-11-15T07:55:22;3.60;;;2.53;;
52854;SDS011;38719;51.418;7.286;2022-11-15T07:57:50;5.90;;;2.80;;
52854;SDS011;38719;51.418;7.286;2022-11-15T08:00:18;5.38;;;2.80;;
52854;SDS011;38719;51.418;7.286;2022-11-15T08:02:47;3.42;;;2.67;;
52854;SDS011;38719;51.418;7.286;2022-11-15T08:05:16;4.28;;;2.97;;
52854;SDS011;38719;51.418;7.286;2022-11-15T08:07:43;2.92;;;2.50;;
52854;SDS011;38719;51.418;7.286;2022-11-15T08:10:11;5.35;;;2.72;;
52854;SDS011;38719;51.418;7.286;2022-11-15T08:12:39;4.43;;;2.33;;
52854;SDS011;38719;51.418;7.286;2022-11-15T08:15:07;6.50;;;2.88;;
52854;SDS011;38719;51.418;7.286;2022-11-15T08:17:36;5.97;;;2.65;;
52854;SDS011;38719;51.418;7.286;2022-11-15T08:20:05;3.92;;;3.00;;
52854;SDS011;38719;51.418;7.286;2022-11-15T08:22:33;3.90;;;2.78;;
52854;SDS011;38719;51.418;7.286;2022-11-15T08:25:01;4.75;;;2.97;;
52854;SDS011;38719;51.418;7.286;2022-11-15T08:27:28;4.82;;;2.75;;
52854;SDS011;38719;51.418;7.286;2022-11-15T08:29:56;3.20;;;2.70;;
52854;SDS011;38719;51.418;7.286;2022-11-15T08:32:24;3.22;;;2.55;;
52854;SDS011;38719;51.418;7.286;2022-11-15T08:34:52;3.85;;;2.50;;
52854;SDS011;38719;51.418;7.286;2022-11-15T08:37:21;3.75;;;2.50;;
52854;SDS011;38719;51.418;7.286;2022-11-15T08:39:48;3.33;;;2.78;;
52854;SDS011;38719;51.418;7.286;2022-11-15T08:42:16;5.07;;;2.70;;
52854;SDS011;38719;51.418;7.286;2022-11-15T08:44:45;3.42;;;2.50;;
52854;SDS011;38719;51.418;7.286;2022-11-15T08:47:13;3.28;;;2.42;;
52854;SDS011;38719;51.418;7.286;2022-11-15T08:49:40;2.50;;;2.30;;
52854;SDS011;38719;51.418;7.286;2022-11-15T08:52:08;3.38;;;2.40;;
52854;SDS011;38719;51.418;7.286;2022-11-15T08:54:37;5.07;;;2.63;;
52854;SDS011;38719;51.418;7.286;2022-11-15T08:57:04;5.22;;;2.40;;
52854;SDS011;38719;51.418;7.286;2022-11-15T08:59:32;3.13;;;2.45;;
52854;SDS011;38719;51.418;7.286;2022-11-15T09:01:59;2.45;;;2.22;;
52854;SDS011;38719;51.418;7.286;2022-11-15T09:04:27;6.90;;;2.53;;
52854;SDS011;38719;51.418;7.286;2022-11-15T09:06:55;2.60;;;2.30;;
52854;SDS011;38719;51.418;7.286;2022-11-15T09:09:22;2.90;;;2.40;;
52854;SDS011;38719;51.418;7.286;2022-11-15T09:11:51;5.00;;;2.70;;
52854;SDS011;38719;51.418;7.286;2022-11-15T09:14:26;4.15;;;2.53;;
52854;SDS011;38719;51.418;7.286;2022-11-15T09:16:53;3.13;;;2.30;;
52854;SDS011;38719;51.418;7.286;2022-11-15T09:19:21;6.20;;;2.30;;
52854;SDS011;38719;51.418;7.286;2022-11-15T09:21:48;2.20;;;1.95;;
52854;SDS011;38719;51.418;7.286;2022-11-15T09:24:16;2.65;;;2.30;;
52854;SDS011;38719;51.418;7.286;2022-11-15T09:26:44;3.05;;;2.50;;
52854;SDS011;38719;51.418;7.286;2022-11-15T09:29:13;3.92;;;2.22;;
52854;SDS011;38719;51.418;7.286;2022-11-15T09:31:40;5.13;;;2.00;;
52854;SDS011;38719;51.418;7.286;2022-11-15T09:34:08;3.35;;;2.00;;
52854;SDS011;38719;51.418;7.286;2022-11-15T09:36:36;3.15;;;2.20;;
52854;SDS011;38719;51.418;7.286;2022-11-15T09:39:03;3.38;;;1.92;;
52854;SDS011;38719;51.418;7.286;2022-11-15T09:41:45;2.45;;;2.10;;
52854;SDS011;38719;51.418;7.286;2022-11-15T09:44:35;2.28;;;2.08;;
52854;SDS011;38719;51.418;7.286;2022-11-15T09:47:18;2.83;;;2.58;;
52854;SDS011;38719;51.418;7.286;2022-11-15T09:50:08;2.28;;;2.05;;
52854;SDS011;38719;51.418;7.286;2022-11-15T09:52:38;2.70;;;2.13;;
52854;SDS011;38719;51.418;7.286;2022-11-15T09:55:10;2.72;;;1.85;;
52854;SDS011;38719;51.418;7.286;2022-11-15T09:57:41;2.67;;;2.05;;
52854;SDS011;38719;51.418;7.286;2022-11-15T10:00:19;4.05;;;2.30;;
52854;SDS011;38719;51.418;7.286;2022-11-15T10:03:09;2.13;;;1.92;;
52854;SDS011;38719;51.418;7.286;2022-11-15T10:05:41;2.13;;;1.92;;
52854;SDS011;38719;51.418;7.286;2022-11-15T10:08:19;1.88;;;1.73;;
52854;SDS011;38719;51.418;7.286;2022-11-15T10:10:57;4.40;;;2.15;;
52854;SDS011;38719;51.418;7.286;2022-11-15T10:13:46;2.20;;;2.00;;
52854;SDS011;38719;51.418;7.286;2022-11-15T10:16:31;2.60;;;1.77;;
52854;SDS011;38719;51.418;7.286;2022-11-15T10:19:22;2.63;;;1.90;;
52854;SDS011;38719;51.418;7.286;2022-11-15T10:22:00;2.92;;;1.95;;
52854;SDS011;38719;51.418;7.286;2022-11-15T10:24:42;2.80;;;2.15;;
52854;SDS011;38719;51.418;7.286;2022-11-15T10:27:12;2.65;;;1.98;;
52854;SDS011;38719;51.418;7.286;2022-11-15T10:29:42;2.10;;;1.88;;
52854;SDS011;38719;51.418;7.286;2022-11-15T10:32:12;1.60;;;1.50;;
52854;SDS011;38719;51.418;7.286;2022-11-15T10:34:41;5.57;;;2.33;;
52854;SDS011;38719;51.418;7.286;2022-11-15T10:37:09;2.63;;;1.90;;
52854;SDS011;38719;51.418;7.286;2022-11-15T10:39:37;2.08;;;1.70;;
52854;SDS011;38719;51.418;7.286;2022-11-15T10:42:17;4.13;;;1.88;;
52854;SDS011;38719;51.418;7.286;2022-11-15T10:44:52;1.85;;;1.63;;
52854;SDS011;38719;51.418;7.286;2022-11-15T10:47:26;2.67;;;1.65;;
52854;SDS011;38719;51.418;7.286;2022-11-15T10:50:05;3.00;;;1.80;;
52854;SDS011;38719;51.418;7.286;2022-11-15T10:52:35;4.63;;;1.80;;
52854;SDS011;38719;51.418;7.286;2022-11-15T10:55:05;4.68;;;1.83;;
52854;SDS011;38719;51.418;7.286;2022-11-15T10:57:49;1.80;;;1.70;;
52854;SDS011;38719;51.418;7.286;2022-11-15T11:00:27;4.18;;;1.90;;
52854;SDS011;38719;51.418;7.286;2022-11-15T11:03:00;4.40;;;1.63;;
52854;SDS011;38719;51.418;7.286;2022-11-15T11:05:30;1.88;;;1.77;;
52854;SDS011;38719;51.418;7.286;2022-11-15T11:08:19;6.68;;;1.83;;
52854;SDS011;38719;51.418;7.286;2022-11-15T11:10:52;2.22;;;1.70;;
52854;SDS011;38719;51.418;7.286;2022-11-15T11:13:28;4.13;;;2.67;;
52854;SDS011;38719;51.418;7.286;2022-11-15T11:15:59;2.47;;;1.70;;
52854;SDS011;38719;51.418;7.286;2022-11-15T11:18:38;2.13;;;1.70;;
52854;SDS011;38719;51.418;7.286;2022-11-15T11:21:10;3.03;;;1.90;;
52854;SDS011;38719;51.418;7.286;2022-11-15T11:23:44;3.42;;;1.70;;
52854;SDS011;38719;51.418;7.286;2022-11-15T11:26:23;2.72;;;2.10;;
52854;SDS011;38719;51.418;7.286;2022-11-15T11:31:39;4.43;;;2.05;;
52854;SDS011;38719;51.418;7.286;2022-11-15T11:34:17;1.67;;;1.58;;
52854;SDS011;38719;51.418;7.286;2022-11-15T11:36:59;2.63;;;1.70;;
52854;SDS011;38719;51.418;7.286;2022-11-15T11:39:36;1.70;;;1.55;;
52854;SDS011;38719;51.418;7.286;2022-11-15T11:42:15;2.00;;;1.80;;
52854;SDS011;38719;51.418;7.286;2022-11-15T11:44:52;3.83;;;2.20;;
52854;SDS011;38719;51.418;7.286;2022-11-15T11:47:31;2.28;;;1.73;;
52854;SDS011;38719;51.418;7.286;2022-11-15T11:50:05;2.72;;;1.63;;
52854;SDS011;38719;51.418;7.286;2022-11-15T11:52:41;3.15;;;1.50;;
52854;SDS011;38719;51.418;7.286;2022-11-15T11:55:17;2.15;;;1.50;;
52854;SDS011;38719;51.418;7.286;2022-11-15T11:57:50;3.33;;;1.80;;
52854;SDS011;38719;51.418;7.286;2022-11-15T12:00:26;3.50;;;1.50;;
52854;SDS011;38719;51.418;7.286;2022-11-15T12:02:59;3.97;;;1.33;;
52854;SDS011;38719;51.418;7.286;2022-11-15T12:05:36;3.50;;;1.60;;
52854;SDS011;38719;51.418;7.286;2022-11-15T12:08:14;1.77;;;1.20;;
52854;SDS011;38719;51.418;7.286;2022-11-15T12:10:52;6.63;;;1.52;;
52854;SDS011;38719;51.418;7.286;2022-11-15T12:13:25;1.88;;;1.50;;
52854;SDS011;38719;51.418;7.286;2022-11-15T12:16:00;2.10;;;1.48;;
52854;SDS011;38719;51.418;7.286;2022-11-15T12:18:35;2.28;;;1.48;;
52854;SDS011;38719;51.418;7.286;2022-11-15T12:21:07;2.70;;;1.40;;
52854;SDS011;38719;51.418;7.286;2022-11-15T12:23:43;1.52;;;1.40;;
52854;SDS011;38719;51.418;7.286;2022-11-15T12:26:16;1.92;;;1.60;;
52854;SDS011;38719;51.418;7.286;2022-11-15T12:28:47;4.28;;;1.85;;
52854;SDS011;38719;51.418;7.286;2022-11-15T12:31:35;1.30;;;1.20;;
52854;SDS011;38719;51.418;7.286;2022-11-15T12:34:13;1.55;;;1.42;;
52854;SDS011;38719;51.418;7.286;2022-11-15T12:36:57;3.05;;;1.90;;
52854;SDS011;38719;51.418;7.286;2022-11-15T12:42:38;2.92;;;1.40;;
52854;SDS011;38719;51.418;7.286;2022-11-15T12:45:23;1.58;;;1.23;;
52854;SDS011;38719;51.418;7.286;2022-11-15T12:47:53;1.95;;;1.55;;
52854;SDS011;38719;51.418;7.286;2022-11-15T12:53:28;3.03;;;1.45;;
52854;SDS011;38719;51.418;7.286;2022-11-15T12:56:17;3.08;;;1.40;;
52854;SDS011;38719;51.418;7.286;2022-11-15T12:58:48;1.52;;;1.40;;
52854;SDS011;38719;51.418;7.286;2022-11-15T13:04:26;1.52;;;1.23;;
52854;SDS011;38719;51.418;7.286;2022-11-15T13:06:56;2.58;;;1.40;;
52854;SDS011;38719;51.418;7.286;2022-11-15T13:18:30;1.42;;;1.33;;
52854;SDS011;38719;51.418;7.286;2022-11-15T13:21:01;2.08;;;1.40;;
52854;SDS011;38719;51.418;7.286;2022-11-15T13:23:52;3.33;;;1.30;;
52854;SDS011;38719;51.418;7.286;2022-11-15T13:26:22;2.92;;;1.45;;
52854;SDS011;38719;51.418;7.286;2022-11-15T13:28:51;3.88;;;1.60;;
52854;SDS011;38719;51.418;7.286;2022-11-15T13:31:22;6.15;;;1.92;;
52854;SDS011;38719;51.418;7.286;2022-11-15T13:33:52;4.18;;;1.58;;
52854;SDS011;38719;51.418;7.286;2022-11-15T13:36:23;2.03;;;1.40;;
52854;SDS011;38719;51.418;7.286;2022-11-15T13:38:56;1.90;;;1.60;;
52854;SDS011;38719;51.418;7.286;2022-11-15T13:41:28;1.80;;;1.40;;
52854;SDS011;38719;51.418;7.286;2022-11-15T13:43:57;1.80;;;1.30;;
52854;SDS011;38719;51.418;7.286;2022-11-15T13:46:26;2.25;;;1.40;;
52854;SDS011;38719;51.418;7.286;2022-11-15T13:48:57;2.35;;;1.85;;
52854;SDS011;38719;51.418;7.286;2022-11-15T13:51:33;6.57;;;1.88;;
52854;SDS011;38719;51.418;7.286;2022-11-15T13:54:07;4.50;;;1.83;;
52854;SDS011;38719;51.418;7.286;2022-11-15T13:56:42;6.07;;;1.67;;
52854;SDS011;38719;51.418;7.286;2022-11-15T13:59:14;11.43;;;2.05;;
52854;SDS011;38719;51.418;7.286;2022-11-15T14:01:47;4.82;;;1.48;;
52854;SDS011;38719;51.418;7.286;2022-11-15T14:04:18;6.45;;;1.75;;
52854;SDS011;38719;51.418;7.286;2022-11-15T14:06:47;1.85;;;1.35;;
52854;SDS011;38719;51.418;7.286;2022-11-15T14:15:18;2.22;;;1.73;;
52854;SDS011;38719;51.418;7.286;2022-11-15T14:17:52;2.03;;;1.70;;
52854;SDS011;38719;51.418;7.286;2022-11-15T14:20:24;1.95;;;1.75;;
52854;SDS011;38719;51.418;7.286;2022-11-15T14:22:55;4.97;;;2.30;;
52854;SDS011;38719;51.418;7.286;2022-11-15T14:25:24;4.80;;;2.15;;
52854;SDS011;38719;51.418;7.286;2022-11-15T14:28:10;4.10;;;2.10;;
52854;SDS011;38719;51.418;7.286;2022-11-15T14:30:40;2.90;;;1.95;;
52854;SDS011;38719;51.418;7.286;2022-11-15T14:33:19;3.78;;;2.65;;
52854;SDS011;38719;51.418;7.286;2022-11-15T14:35:49;3.00;;;1.90;;
52854;SDS011;38719;51.418;7.286;2022-11-15T14:38:16;5.82;;;2.20;;
52854;SDS011;38719;51.418;7.286;2022-11-15T14:40:44;3.97;;;2.35;;
52854;SDS011;38719;51.418;7.286;2022-11-15T14:43:13;3.65;;;2.10;;
52854;SDS011;38719;51.418;7.286;2022-11-15T14:45:40;3.90;;;2.33;;
52854;SDS011;38719;51.418;7.286;2022-11-15T14:48:08;3.22;;;2.40;;
52854;SDS011;38719;51.418;7.286;2022-11-15T14:50:36;3.33;;;2.10;;
52854;SDS011;38719;51.418;7.286;2022-11-15T14:53:03;4.95;;;2.25;;
52854;SDS011;38719;51.418;7.286;2022-11-15T14:55:32;4.68;;;2.30;;
52854;SDS011;38719;51.418;7.286;2022-11-15T14:58:02;2.67;;;2.10;;
52854;SDS011;38719;51.418;7.286;2022-11-15T15:00:31;3.10;;;2.38;;
52854;SDS011;38719;51.418;7.286;2022-11-15T15:03:00;4.03;;;2.30;;
52854;SDS011;38719;51.418;7.286;2022-11-15T15:05:30;2.55;;;2.00;;
52854;SDS011;38719;51.418;7.286;2022-11-15T15:07:59;3.33;;;2.17;;
52854;SDS011;38719;51.418;7.286;2022-11-15T15:10:27;3.65;;;2.20;;
52854;SDS011;38719;51.418;7.286;2022-11-15T15:13:10;4.20;;;2.70;;
52854;SDS011;38719;51.418;7.286;2022-11-15T15:15:45;3.78;;;2.65;;
52854;SDS011;38719;51.418;7.286;2022-11-15T15:18:13;4.57;;;2.50;;
52854;SDS011;38719;51.418;7.286;2022-11-15T15:20:41;3.17;;;2.28;;
52854;SDS011;38719;51.418;7.286;2022-11-15T15:23:14;2.88;;;2.15;;
52854;SDS011;38719;51.418;7.286;2022-11-15T15:25:43;2.60;;;2.20;;
52854;SDS011;38719;51.418;7.286;2022-11-15T15:28:12;3.22;;;2.03;;
52854;SDS011;38719;51.418;7.286;2022-11-15T15:30:40;4.65;;;2.47;;
52854;SDS011;38719;51.418;7.286;2022-11-15T15:33:09;5.53;;;2.50;;
52854;SDS011;38719;51.418;7.286;2022-11-15T15:35:36;3.35;;;2.22;;
52854;SDS011;38719;51.418;7.286;2022-11-15T15:38:04;3.75;;;2.22;;
52854;SDS011;38719;51.418;7.286;2022-11-15T15:40:32;2.78;;;2.10;;
52854;SDS011;38719;51.418;7.286;2022-11-15T15:43:00;2.20;;;2.00;;